Etusivu
METAR-TAF:

METAR-TAF

Lentoasemat :

Kasuminome, Japani

Leveyspiiri: 38-14N, Pituuspiiri: 140-55E, korkeus merenpinnasta: 7 m

Tämänhetkinen sää

Tämä raportti tehtiin 1 tunti ja 1 minuuttia sitten, kello 23.31 UTC
Tuuli 5 kn pohjoisesta
Lämpötila 7°C
Kosteus 87%
Ilmanpaine 1010 hPa
Näkyvyys: 5000 m
Muutamia pilviä 800 ft:n korkeudessa
Hajanaisia pilviä 1500 ft:n korkeudessa
Hajonneita pilviä 2000 ft:n korkeudessa
sadetta, utua

METAR: RJSU 252331Z 01005KT 5000 RA BR FEW008 SCT015 BKN020 07/05 Q1010 RMK 1ST008 3SC015 6SC020 A2982

Aika: 09:32 (00:32 UTC)


TAF: puuttuu

Säähavainnot ja -ennusteet yli 4000 lentoasemalta (METAR- ja TAF-raportit).

Käytössä olevat sääasemat on merkitty karttaan keltaisilla ja punaisilla pisteillä.

Aseta hiiri pisteen päälle nähdäksesi sääaseman nimen.

Klikkaa sitten nähdäksesi säähavainnot ja -ennusteet.

Kartan vaihtaminen: klikkaa mustalla rastilla varustettuja vihreitä pisteitä, niin voit zoomata sisään; viivalla varustettua vihreää pistettä, niin voit zoomata ulos tai vihreitä nuolia, niin pääset viereisille kartoille.


METAR-TAF: